sensor_id;sensor_type;location;lat;lon;timestamp;temperature;humidity
19342;DHT22;9807;48.258;12.690;2024-03-29T00:01:22;9.60;99.90
19342;DHT22;9807;48.258;12.690;2024-03-29T00:03:48;9.60;99.90
19342;DHT22;9807;48.258;12.690;2024-03-29T00:06:13;9.60;99.90
19342;DHT22;9807;48.258;12.690;2024-03-29T00:08:39;9.60;99.90
19342;DHT22;9807;48.258;12.690;2024-03-29T00:11:04;9.60;99.90
19342;DHT22;9807;48.258;12.690;2024-03-29T00:13:30;9.60;99.90
19342;DHT22;9807;48.258;12.690;2024-03-29T00:15:56;9.50;99.90
19342;DHT22;9807;48.258;12.690;2024-03-29T00:18:21;9.50;99.90
19342;DHT22;9807;48.258;12.690;2024-03-29T00:20:47;9.50;99.90
19342;DHT22;9807;48.258;12.690;2024-03-29T00:23:13;9.60;99.90
19342;DHT22;9807;48.258;12.690;2024-03-29T00:25:39;9.50;99.90
19342;DHT22;9807;48.258;12.690;2024-03-29T00:28:05;9.50;99.90
19342;DHT22;9807;48.258;12.690;2024-03-29T00:30:31;9.50;99.90
19342;DHT22;9807;48.258;12.690;2024-03-29T00:32:56;9.50;99.90
19342;DHT22;9807;48.258;12.690;2024-03-29T00:35:22;9.50;99.90
19342;DHT22;9807;48.258;12.690;2024-03-29T00:37:49;9.60;99.90
19342;DHT22;9807;48.258;12.690;2024-03-29T00:40:15;9.60;99.90
19342;DHT22;9807;48.258;12.690;2024-03-29T00:42:41;9.50;99.90
19342;DHT22;9807;48.258;12.690;2024-03-29T00:45:07;9.60;99.90
19342;DHT22;9807;48.258;12.690;2024-03-29T00:47:33;9.60;99.90
19342;DHT22;9807;48.258;12.690;2024-03-29T00:49:58;9.60;99.90
19342;DHT22;9807;48.258;12.690;2024-03-29T00:52:24;9.60;99.90
19342;DHT22;9807;48.258;12.690;2024-03-29T00:54:50;9.50;99.90
19342;DHT22;9807;48.258;12.690;2024-03-29T00:57:15;9.50;99.90
19342;DHT22;9807;48.258;12.690;2024-03-29T00:59:45;9.40;99.90
19342;DHT22;9807;48.258;12.690;2024-03-29T01:02:12;9.40;99.90
19342;DHT22;9807;48.258;12.690;2024-03-29T01:04:37;9.40;99.90
19342;DHT22;9807;48.258;12.690;2024-03-29T01:07:05;9.40;99.90
19342;DHT22;9807;48.258;12.690;2024-03-29T01:09:31;9.40;99.90
19342;DHT22;9807;48.258;12.690;2024-03-29T01:11:56;9.30;99.90
19342;DHT22;9807;48.258;12.690;2024-03-29T01:14:22;9.30;99.90
19342;DHT22;9807;48.258;12.690;2024-03-29T01:16:48;9.40;99.90
19342;DHT22;9807;48.258;12.690;2024-03-29T01:19:13;9.40;99.90
19342;DHT22;9807;48.258;12.690;2024-03-29T01:21:39;9.40;99.90
19342;DHT22;9807;48.258;12.690;2024-03-29T01:24:05;9.40;99.90
19342;DHT22;9807;48.258;12.690;2024-03-29T01:26:31;9.30;99.90
19342;DHT22;9807;48.258;12.690;2024-03-29T01:28:57;9.30;99.90
19342;DHT22;9807;48.258;12.690;2024-03-29T01:31:23;9.30;99.90
19342;DHT22;9807;48.258;12.690;2024-03-29T01:33:49;9.30;99.90
19342;DHT22;9807;48.258;12.690;2024-03-29T01:36:15;9.40;99.90
19342;DHT22;9807;48.258;12.690;2024-03-29T01:38:41;9.40;99.90
19342;DHT22;9807;48.258;12.690;2024-03-29T01:41:07;9.30;99.90
19342;DHT22;9807;48.258;12.690;2024-03-29T01:43:33;9.30;99.90
19342;DHT22;9807;48.258;12.690;2024-03-29T01:45:59;9.30;99.90
19342;DHT22;9807;48.258;12.690;2024-03-29T01:48:26;9.30;99.90
19342;DHT22;9807;48.258;12.690;2024-03-29T01:50:54;9.40;99.90
19342;DHT22;9807;48.258;12.690;2024-03-29T01:53:22;9.40;99.90
19342;DHT22;9807;48.258;12.690;2024-03-29T01:55:48;9.40;99.90
19342;DHT22;9807;48.258;12.690;2024-03-29T01:58:14;9.40;99.90
19342;DHT22;9807;48.258;12.690;2024-03-29T02:00:44;9.30;99.90
19342;DHT22;9807;48.258;12.690;2024-03-29T02:03:14;9.30;99.90
19342;DHT22;9807;48.258;12.690;2024-03-29T02:05:41;9.30;99.90
19342;DHT22;9807;48.258;12.690;2024-03-29T02:08:08;9.30;99.90
19342;DHT22;9807;48.258;12.690;2024-03-29T02:10:35;9.30;99.90
19342;DHT22;9807;48.258;12.690;2024-03-29T02:13:02;9.30;99.90
19342;DHT22;9807;48.258;12.690;2024-03-29T02:15:31;9.20;99.90
19342;DHT22;9807;48.258;12.690;2024-03-29T02:17:57;9.20;99.90
19342;DHT22;9807;48.258;12.690;2024-03-29T02:20:23;9.20;99.90
19342;DHT22;9807;48.258;12.690;2024-03-29T02:23:00;9.20;99.90
19342;DHT22;9807;48.258;12.690;2024-03-29T02:25:27;9.00;99.90
19342;DHT22;9807;48.258;12.690;2024-03-29T02:27:54;9.00;99.90
19342;DHT22;9807;48.258;12.690;2024-03-29T02:30:19;9.10;99.90
19342;DHT22;9807;48.258;12.690;2024-03-29T02:32:46;9.10;99.90
19342;DHT22;9807;48.258;12.690;2024-03-29T02:35:11;9.00;99.90
19342;DHT22;9807;48.258;12.690;2024-03-29T02:37:38;9.00;99.90
19342;DHT22;9807;48.258;12.690;2024-03-29T02:40:04;9.10;99.90
19342;DHT22;9807;48.258;12.690;2024-03-29T02:42:31;9.10;99.90
19342;DHT22;9807;48.258;12.690;2024-03-29T02:44:57;9.10;99.90
19342;DHT22;9807;48.258;12.690;2024-03-29T02:47:23;9.10;99.90
19342;DHT22;9807;48.258;12.690;2024-03-29T02:49:49;9.10;99.90
19342;DHT22;9807;48.258;12.690;2024-03-29T02:52:15;9.20;99.90
19342;DHT22;9807;48.258;12.690;2024-03-29T02:54:41;9.20;99.90
19342;DHT22;9807;48.258;12.690;2024-03-29T02:57:07;9.20;99.90
19342;DHT22;9807;48.258;12.690;2024-03-29T02:59:33;9.20;99.90
19342;DHT22;9807;48.258;12.690;2024-03-29T03:01:59;9.10;99.90
19342;DHT22;9807;48.258;12.690;2024-03-29T03:04:24;9.10;99.90
19342;DHT22;9807;48.258;12.690;2024-03-29T03:06:50;9.20;99.90
19342;DHT22;9807;48.258;12.690;2024-03-29T03:09:16;9.20;99.90
19342;DHT22;9807;48.258;12.690;2024-03-29T03:12:00;9.20;99.90
19342;DHT22;9807;48.258;12.690;2024-03-29T03:14:26;9.20;99.90
19342;DHT22;9807;48.258;12.690;2024-03-29T03:16:52;9.10;99.90
19342;DHT22;9807;48.258;12.690;2024-03-29T03:19:18;9.10;99.90
19342;DHT22;9807;48.258;12.690;2024-03-29T03:21:44;9.00;99.90
19342;DHT22;9807;48.258;12.690;2024-03-29T03:24:13;9.00;99.90
19342;DHT22;9807;48.258;12.690;2024-03-29T03:26:38;9.00;99.90
19342;DHT22;9807;48.258;12.690;2024-03-29T03:29:04;8.90;99.90
19342;DHT22;9807;48.258;12.690;2024-03-29T03:31:30;9.00;99.90
19342;DHT22;9807;48.258;12.690;2024-03-29T03:33:56;9.00;99.90
19342;DHT22;9807;48.258;12.690;2024-03-29T03:36:21;9.00;99.90
19342;DHT22;9807;48.258;12.690;2024-03-29T03:38:48;9.10;99.90
19342;DHT22;9807;48.258;12.690;2024-03-29T03:41:14;9.10;99.90
19342;DHT22;9807;48.258;12.690;2024-03-29T03:43:40;9.10;99.90
19342;DHT22;9807;48.258;12.690;2024-03-29T03:46:05;9.20;99.90
19342;DHT22;9807;48.258;12.690;2024-03-29T03:48:31;9.20;99.90
19342;DHT22;9807;48.258;12.690;2024-03-29T03:50:57;9.20;99.90
19342;DHT22;9807;48.258;12.690;2024-03-29T03:53:23;9.20;99.90
19342;DHT22;9807;48.258;12.690;2024-03-29T03:55:51;9.20;99.90
19342;DHT22;9807;48.258;12.690;2024-03-29T03:58:16;9.20;99.90
19342;DHT22;9807;48.258;12.690;2024-03-29T04:00:43;9.20;99.90
19342;DHT22;9807;48.258;12.690;2024-03-29T04:03:10;9.20;99.90
19342;DHT22;9807;48.258;12.690;2024-03-29T04:05:37;9.20;99.90
19342;DHT22;9807;48.258;12.690;2024-03-29T04:08:04;9.20;99.90
19342;DHT22;9807;48.258;12.690;2024-03-29T04:10:30;9.20;99.90
19342;DHT22;9807;48.258;12.690;2024-03-29T04:12:56;9.20;99.90
19342;DHT22;9807;48.258;12.690;2024-03-29T04:15:21;9.20;99.90
19342;DHT22;9807;48.258;12.690;2024-03-29T04:17:47;9.20;99.90
19342;DHT22;9807;48.258;12.690;2024-03-29T04:20:12;9.20;99.90
19342;DHT22;9807;48.258;12.690;2024-03-29T04:22:38;9.20;99.90
19342;DHT22;9807;48.258;12.690;2024-03-29T04:25:04;9.10;99.90
19342;DHT22;9807;48.258;12.690;2024-03-29T04:27:29;9.10;99.90
19342;DHT22;9807;48.258;12.690;2024-03-29T04:29:55;9.10;99.90
19342;DHT22;9807;48.258;12.690;2024-03-29T04:32:21;9.00;99.90
19342;DHT22;9807;48.258;12.690;2024-03-29T04:34:48;9.20;99.90
19342;DHT22;9807;48.258;12.690;2024-03-29T04:37:14;9.10;99.90
19342;DHT22;9807;48.258;12.690;2024-03-29T04:39:42;9.20;99.90
19342;DHT22;9807;48.258;12.690;2024-03-29T04:42:11;9.20;99.90
19342;DHT22;9807;48.258;12.690;2024-03-29T04:44:37;9.20;99.90
19342;DHT22;9807;48.258;12.690;2024-03-29T04:47:03;9.20;99.90
19342;DHT22;9807;48.258;12.690;2024-03-29T04:49:28;9.20;99.90
19342;DHT22;9807;48.258;12.690;2024-03-29T04:52:03;9.10;99.90
19342;DHT22;9807;48.258;12.690;2024-03-29T04:54:30;9.10;99.90
19342;DHT22;9807;48.258;12.690;2024-03-29T04:56:55;9.10;99.90
19342;DHT22;9807;48.258;12.690;2024-03-29T04:59:21;9.00;99.90
19342;DHT22;9807;48.258;12.690;2024-03-29T05:01:47;9.00;99.90
19342;DHT22;9807;48.258;12.690;2024-03-29T05:04:25;9.00;99.90
19342;DHT22;9807;48.258;12.690;2024-03-29T05:06:55;9.00;99.90
19342;DHT22;9807;48.258;12.690;2024-03-29T05:09:21;9.10;99.90
19342;DHT22;9807;48.258;12.690;2024-03-29T05:11:47;9.10;99.90
19342;DHT22;9807;48.258;12.690;2024-03-29T05:14:17;9.10;99.90
19342;DHT22;9807;48.258;12.690;2024-03-29T05:16:46;9.10;99.90
19342;DHT22;9807;48.258;12.690;2024-03-29T05:19:13;9.10;99.90
19342;DHT22;9807;48.258;12.690;2024-03-29T05:21:39;9.00;99.90
19342;DHT22;9807;48.258;12.690;2024-03-29T05:24:06;9.00;99.90
19342;DHT22;9807;48.258;12.690;2024-03-29T05:26:32;9.00;99.90
19342;DHT22;9807;48.258;12.690;2024-03-29T05:28:58;9.10;99.90
19342;DHT22;9807;48.258;12.690;2024-03-29T05:31:24;9.10;99.90
19342;DHT22;9807;48.258;12.690;2024-03-29T05:33:50;9.10;99.90
19342;DHT22;9807;48.258;12.690;2024-03-29T05:36:16;9.20;99.90
19342;DHT22;9807;48.258;12.690;2024-03-29T05:38:42;9.20;99.90
19342;DHT22;9807;48.258;12.690;2024-03-29T05:41:07;9.30;99.90
19342;DHT22;9807;48.258;12.690;2024-03-29T05:43:33;9.40;99.90
19342;DHT22;9807;48.258;12.690;2024-03-29T05:45:59;9.40;99.90
19342;DHT22;9807;48.258;12.690;2024-03-29T05:48:27;9.50;99.90
19342;DHT22;9807;48.258;12.690;2024-03-29T05:50:52;9.60;99.90
19342;DHT22;9807;48.258;12.690;2024-03-29T05:53:18;9.60;99.90
19342;DHT22;9807;48.258;12.690;2024-03-29T05:55:44;9.60;99.90
19342;DHT22;9807;48.258;12.690;2024-03-29T05:58:12;9.60;99.90
19342;DHT22;9807;48.258;12.690;2024-03-29T06:00:43;9.60;99.90
19342;DHT22;9807;48.258;12.690;2024-03-29T06:03:10;9.80;99.90
19342;DHT22;9807;48.258;12.690;2024-03-29T06:05:36;9.80;99.90
19342;DHT22;9807;48.258;12.690;2024-03-29T06:08:01;9.90;99.90
19342;DHT22;9807;48.258;12.690;2024-03-29T06:10:27;10.00;99.90
19342;DHT22;9807;48.258;12.690;2024-03-29T06:12:53;10.10;99.90
19342;DHT22;9807;48.258;12.690;2024-03-29T06:15:19;10.20;99.90
19342;DHT22;9807;48.258;12.690;2024-03-29T06:18:03;10.20;99.90
19342;DHT22;9807;48.258;12.690;2024-03-29T06:20:29;10.10;99.90
19342;DHT22;9807;48.258;12.690;2024-03-29T06:22:54;10.20;99.90
19342;DHT22;9807;48.258;12.690;2024-03-29T06:25:20;10.40;99.90
19342;DHT22;9807;48.258;12.690;2024-03-29T06:27:45;10.30;99.90
19342;DHT22;9807;48.258;12.690;2024-03-29T06:30:15;10.40;99.90
19342;DHT22;9807;48.258;12.690;2024-03-29T06:32:43;10.60;99.90
19342;DHT22;9807;48.258;12.690;2024-03-29T06:35:11;10.70;99.90
19342;DHT22;9807;48.258;12.690;2024-03-29T06:37:37;10.70;99.90
19342;DHT22;9807;48.258;12.690;2024-03-29T06:40:03;10.70;99.90
19342;DHT22;9807;48.258;12.690;2024-03-29T06:42:29;10.80;99.90
19342;DHT22;9807;48.258;12.690;2024-03-29T06:44:56;10.80;99.90
19342;DHT22;9807;48.258;12.690;2024-03-29T06:47:28;10.90;99.90
19342;DHT22;9807;48.258;12.690;2024-03-29T06:49:53;10.90;99.90
19342;DHT22;9807;48.258;12.690;2024-03-29T06:52:19;11.00;99.90
19342;DHT22;9807;48.258;12.690;2024-03-29T06:54:45;11.20;99.90
19342;DHT22;9807;48.258;12.690;2024-03-29T06:57:11;11.30;99.90
19342;DHT22;9807;48.258;12.690;2024-03-29T06:59:41;11.20;99.90
19342;DHT22;9807;48.258;12.690;2024-03-29T07:02:06;11.30;99.90
19342;DHT22;9807;48.258;12.690;2024-03-29T07:04:32;11.30;99.90
19342;DHT22;9807;48.258;12.690;2024-03-29T07:06:58;11.60;99.90
19342;DHT22;9807;48.258;12.690;2024-03-29T07:09:24;11.70;99.90
19342;DHT22;9807;48.258;12.690;2024-03-29T07:11:51;11.70;99.90
19342;DHT22;9807;48.258;12.690;2024-03-29T07:14:18;12.00;99.90
19342;DHT22;9807;48.258;12.690;2024-03-29T07:16:45;12.10;99.90
19342;DHT22;9807;48.258;12.690;2024-03-29T07:19:11;12.20;99.90
19342;DHT22;9807;48.258;12.690;2024-03-29T07:21:43;12.30;99.90
19342;DHT22;9807;48.258;12.690;2024-03-29T07:24:10;12.30;99.90
19342;DHT22;9807;48.258;12.690;2024-03-29T07:26:36;12.50;99.90
19342;DHT22;9807;48.258;12.690;2024-03-29T07:29:02;12.60;99.90
19342;DHT22;9807;48.258;12.690;2024-03-29T07:31:31;12.70;99.90
19342;DHT22;9807;48.258;12.690;2024-03-29T07:33:56;12.70;99.90
19342;DHT22;9807;48.258;12.690;2024-03-29T07:36:22;12.90;99.90
19342;DHT22;9807;48.258;12.690;2024-03-29T07:38:50;13.10;99.90
19342;DHT22;9807;48.258;12.690;2024-03-29T07:41:16;13.10;99.90
19342;DHT22;9807;48.258;12.690;2024-03-29T07:43:52;12.90;99.90
19342;DHT22;9807;48.258;12.690;2024-03-29T07:46:19;13.20;99.90
19342;DHT22;9807;48.258;12.690;2024-03-29T07:48:47;13.30;99.90
19342;DHT22;9807;48.258;12.690;2024-03-29T07:51:13;13.50;99.90
19342;DHT22;9807;48.258;12.690;2024-03-29T07:53:39;13.60;99.90
19342;DHT22;9807;48.258;12.690;2024-03-29T07:56:05;13.60;99.90
19342;DHT22;9807;48.258;12.690;2024-03-29T07:58:31;13.70;99.90
19342;DHT22;9807;48.258;12.690;2024-03-29T08:00:57;14.10;99.90
19342;DHT22;9807;48.258;12.690;2024-03-29T08:03:23;14.20;99.90
19342;DHT22;9807;48.258;12.690;2024-03-29T08:08:25;14.50;99.90
19342;DHT22;9807;48.258;12.690;2024-03-29T08:10:53;14.70;99.90
19342;DHT22;9807;48.258;12.690;2024-03-29T08:13:19;14.70;99.90
19342;DHT22;9807;48.258;12.690;2024-03-29T08:15:47;14.80;99.90
19342;DHT22;9807;48.258;12.690;2024-03-29T08:18:13;14.90;99.90
19342;DHT22;9807;48.258;12.690;2024-03-29T08:20:39;15.00;99.90
19342;DHT22;9807;48.258;12.690;2024-03-29T08:23:04;15.20;99.90
19342;DHT22;9807;48.258;12.690;2024-03-29T08:25:30;15.20;99.90
19342;DHT22;9807;48.258;12.690;2024-03-29T08:27:56;15.20;99.90
19342;DHT22;9807;48.258;12.690;2024-03-29T08:30:27;15.20;99.90
19342;DHT22;9807;48.258;12.690;2024-03-29T08:33:00;15.20;99.90
19342;DHT22;9807;48.258;12.690;2024-03-29T08:35:32;15.20;99.90
19342;DHT22;9807;48.258;12.690;2024-03-29T08:37:57;15.20;99.90
19342;DHT22;9807;48.258;12.690;2024-03-29T08:40:23;14.60;99.90
19342;DHT22;9807;48.258;12.690;2024-03-29T08:42:50;13.80;99.90
19342;DHT22;9807;48.258;12.690;2024-03-29T08:45:16;13.60;99.90
19342;DHT22;9807;48.258;12.690;2024-03-29T08:47:43;13.80;99.90
19342;DHT22;9807;48.258;12.690;2024-03-29T08:50:10;14.20;99.90
19342;DHT22;9807;48.258;12.690;2024-03-29T08:52:36;14.50;99.90
19342;DHT22;9807;48.258;12.690;2024-03-29T08:55:02;14.70;99.90
19342;DHT22;9807;48.258;12.690;2024-03-29T08:57:28;14.70;99.90
19342;DHT22;9807;48.258;12.690;2024-03-29T08:59:53;14.80;99.90
19342;DHT22;9807;48.258;12.690;2024-03-29T09:02:19;14.70;99.90
19342;DHT22;9807;48.258;12.690;2024-03-29T09:04:45;14.50;99.90
19342;DHT22;9807;48.258;12.690;2024-03-29T09:07:11;14.60;99.90
19342;DHT22;9807;48.258;12.690;2024-03-29T09:09:37;14.40;99.90
19342;DHT22;9807;48.258;12.690;2024-03-29T09:12:07;14.60;99.90
19342;DHT22;9807;48.258;12.690;2024-03-29T09:14:33;14.70;99.90
19342;DHT22;9807;48.258;12.690;2024-03-29T09:16:59;14.80;99.90
19342;DHT22;9807;48.258;12.690;2024-03-29T09:19:24;14.80;99.90
19342;DHT22;9807;48.258;12.690;2024-03-29T09:21:50;14.80;99.90
19342;DHT22;9807;48.258;12.690;2024-03-29T09:24:16;14.90;99.90
19342;DHT22;9807;48.258;12.690;2024-03-29T09:26:49;15.10;99.90
19342;DHT22;9807;48.258;12.690;2024-03-29T09:29:14;15.30;99.90
19342;DHT22;9807;48.258;12.690;2024-03-29T09:31:41;15.30;99.90
19342;DHT22;9807;48.258;12.690;2024-03-29T09:34:07;15.30;99.90
19342;DHT22;9807;48.258;12.690;2024-03-29T09:36:35;15.40;99.90
19342;DHT22;9807;48.258;12.690;2024-03-29T09:39:00;15.40;99.90
19342;DHT22;9807;48.258;12.690;2024-03-29T09:41:27;15.50;99.90
19342;DHT22;9807;48.258;12.690;2024-03-29T09:43:55;15.70;99.90
19342;DHT22;9807;48.258;12.690;2024-03-29T09:46:24;15.70;99.90
19342;DHT22;9807;48.258;12.690;2024-03-29T09:48:51;15.70;99.90
19342;DHT22;9807;48.258;12.690;2024-03-29T09:51:19;15.70;99.90
19342;DHT22;9807;48.258;12.690;2024-03-29T09:53:46;15.80;99.90
19342;DHT22;9807;48.258;12.690;2024-03-29T09:56:12;15.80;99.90
19342;DHT22;9807;48.258;12.690;2024-03-29T09:58:38;15.80;99.90
19342;DHT22;9807;48.258;12.690;2024-03-29T10:01:06;15.80;99.90
19342;DHT22;9807;48.258;12.690;2024-03-29T10:03:41;16.00;99.90
19342;DHT22;9807;48.258;12.690;2024-03-29T10:06:07;15.70;99.90
19342;DHT22;9807;48.258;12.690;2024-03-29T10:08:40;15.70;99.90
19342;DHT22;9807;48.258;12.690;2024-03-29T10:11:05;15.90;99.90
19342;DHT22;9807;48.258;12.690;2024-03-29T10:13:31;16.00;99.90
19342;DHT22;9807;48.258;12.690;2024-03-29T10:15:57;16.00;99.90
19342;DHT22;9807;48.258;12.690;2024-03-29T10:18:27;15.90;99.90
19342;DHT22;9807;48.258;12.690;2024-03-29T10:23:26;16.10;99.90
19342;DHT22;9807;48.258;12.690;2024-03-29T10:25:52;16.20;99.90
19342;DHT22;9807;48.258;12.690;2024-03-29T10:28:21;16.30;99.90
19342;DHT22;9807;48.258;12.690;2024-03-29T10:30:48;16.30;99.90
19342;DHT22;9807;48.258;12.690;2024-03-29T10:33:16;16.30;99.90
19342;DHT22;9807;48.258;12.690;2024-03-29T10:35:45;16.30;99.90
19342;DHT22;9807;48.258;12.690;2024-03-29T10:38:11;16.40;99.90
19342;DHT22;9807;48.258;12.690;2024-03-29T10:40:41;16.40;99.90
19342;DHT22;9807;48.258;12.690;2024-03-29T10:43:11;16.50;99.90
19342;DHT22;9807;48.258;12.690;2024-03-29T10:45:42;16.50;99.90
19342;DHT22;9807;48.258;12.690;2024-03-29T10:48:10;16.50;99.90
19342;DHT22;9807;48.258;12.690;2024-03-29T10:50:37;16.60;99.90
19342;DHT22;9807;48.258;12.690;2024-03-29T10:53:05;16.70;99.90
19342;DHT22;9807;48.258;12.690;2024-03-29T10:55:33;16.70;99.90
19342;DHT22;9807;48.258;12.690;2024-03-29T10:58:01;16.80;99.90
19342;DHT22;9807;48.258;12.690;2024-03-29T11:00:33;16.90;99.90
19342;DHT22;9807;48.258;12.690;2024-03-29T11:05:50;17.00;99.90
19342;DHT22;9807;48.258;12.690;2024-03-29T11:08:24;17.10;99.90
19342;DHT22;9807;48.258;12.690;2024-03-29T11:10:54;17.30;99.90
19342;DHT22;9807;48.258;12.690;2024-03-29T11:15:57;17.30;99.90
19342;DHT22;9807;48.258;12.690;2024-03-29T11:18:26;17.30;99.90
19342;DHT22;9807;48.258;12.690;2024-03-29T11:20:53;17.40;99.90
19342;DHT22;9807;48.258;12.690;2024-03-29T11:23:20;17.50;99.90
19342;DHT22;9807;48.258;12.690;2024-03-29T11:25:49;17.50;99.90
19342;DHT22;9807;48.258;12.690;2024-03-29T11:28:23;17.50;99.90
19342;DHT22;9807;48.258;12.690;2024-03-29T11:30:49;17.50;99.90
19342;DHT22;9807;48.258;12.690;2024-03-29T11:33:35;17.60;99.90
19342;DHT22;9807;48.258;12.690;2024-03-29T11:36:17;17.60;99.90
19342;DHT22;9807;48.258;12.690;2024-03-29T11:38:45;17.70;99.90
19342;DHT22;9807;48.258;12.690;2024-03-29T11:41:12;17.70;99.90
19342;DHT22;9807;48.258;12.690;2024-03-29T11:43:40;17.70;99.90
19342;DHT22;9807;48.258;12.690;2024-03-29T11:46:14;17.80;99.90
19342;DHT22;9807;48.258;12.690;2024-03-29T11:48:41;17.90;99.90
19342;DHT22;9807;48.258;12.690;2024-03-29T11:51:13;18.00;99.90
19342;DHT22;9807;48.258;12.690;2024-03-29T11:53:43;18.00;99.90
19342;DHT22;9807;48.258;12.690;2024-03-29T11:56:10;18.00;99.90
19342;DHT22;9807;48.258;12.690;2024-03-29T11:58:37;17.90;99.90
19342;DHT22;9807;48.258;12.690;2024-03-29T12:01:04;18.00;99.90
19342;DHT22;9807;48.258;12.690;2024-03-29T12:03:31;17.90;99.90
19342;DHT22;9807;48.258;12.690;2024-03-29T12:05:58;18.00;99.90
19342;DHT22;9807;48.258;12.690;2024-03-29T12:08:25;18.10;99.90
19342;DHT22;9807;48.258;12.690;2024-03-29T12:10:52;18.30;99.90
19342;DHT22;9807;48.258;12.690;2024-03-29T12:13:18;18.40;99.90
19342;DHT22;9807;48.258;12.690;2024-03-29T12:15:44;18.50;99.90
19342;DHT22;9807;48.258;12.690;2024-03-29T12:18:10;18.70;99.90
19342;DHT22;9807;48.258;12.690;2024-03-29T12:20:38;18.70;99.90
19342;DHT22;9807;48.258;12.690;2024-03-29T12:23:06;18.70;99.90
19342;DHT22;9807;48.258;12.690;2024-03-29T12:25:33;18.80;99.90
19342;DHT22;9807;48.258;12.690;2024-03-29T12:28:00;18.90;99.90
19342;DHT22;9807;48.258;12.690;2024-03-29T12:30:26;19.10;99.90
19342;DHT22;9807;48.258;12.690;2024-03-29T12:33:05;19.20;99.90
19342;DHT22;9807;48.258;12.690;2024-03-29T12:35:42;19.20;99.90
19342;DHT22;9807;48.258;12.690;2024-03-29T12:38:13;19.20;99.90
19342;DHT22;9807;48.258;12.690;2024-03-29T12:40:43;19.30;99.90
19342;DHT22;9807;48.258;12.690;2024-03-29T12:43:11;19.30;99.90
19342;DHT22;9807;48.258;12.690;2024-03-29T12:45:41;19.40;99.90
19342;DHT22;9807;48.258;12.690;2024-03-29T12:48:14;19.40;99.90
19342;DHT22;9807;48.258;12.690;2024-03-29T12:50:41;19.40;99.90
19342;DHT22;9807;48.258;12.690;2024-03-29T12:53:10;19.40;99.90
19342;DHT22;9807;48.258;12.690;2024-03-29T12:55:40;19.40;99.90
19342;DHT22;9807;48.258;12.690;2024-03-29T12:58:07;19.40;99.90
19342;DHT22;9807;48.258;12.690;2024-03-29T13:00:35;19.50;99.90
19342;DHT22;9807;48.258;12.690;2024-03-29T13:03:02;19.50;99.90
19342;DHT22;9807;48.258;12.690;2024-03-29T13:05:27;19.60;99.90
19342;DHT22;9807;48.258;12.690;2024-03-29T13:07:57;19.60;99.90
19342;DHT22;9807;48.258;12.690;2024-03-29T13:10:23;19.70;99.90
19342;DHT22;9807;48.258;12.690;2024-03-29T13:12:50;19.80;99.90
19342;DHT22;9807;48.258;12.690;2024-03-29T13:15:21;19.90;99.90
19342;DHT22;9807;48.258;12.690;2024-03-29T13:17:49;20.00;99.90
19342;DHT22;9807;48.258;12.690;2024-03-29T13:20:16;20.00;99.90
19342;DHT22;9807;48.258;12.690;2024-03-29T13:22:43;20.10;99.90
19342;DHT22;9807;48.258;12.690;2024-03-29T13:25:14;20.30;99.90
19342;DHT22;9807;48.258;12.690;2024-03-29T13:27:41;20.40;99.90
19342;DHT22;9807;48.258;12.690;2024-03-29T13:30:09;20.40;99.90
19342;DHT22;9807;48.258;12.690;2024-03-29T13:32:38;20.40;99.90
19342;DHT22;9807;48.258;12.690;2024-03-29T13:35:05;20.50;99.90
19342;DHT22;9807;48.258;12.690;2024-03-29T13:37:32;20.40;99.90
19342;DHT22;9807;48.258;12.690;2024-03-29T13:39:58;20.40;99.90
19342;DHT22;9807;48.258;12.690;2024-03-29T13:42:23;20.40;99.90
19342;DHT22;9807;48.258;12.690;2024-03-29T13:44:50;20.30;99.90
19342;DHT22;9807;48.258;12.690;2024-03-29T13:47:16;20.30;99.90
19342;DHT22;9807;48.258;12.690;2024-03-29T13:49:44;20.40;99.90
19342;DHT22;9807;48.258;12.690;2024-03-29T13:52:11;20.50;99.90
19342;DHT22;9807;48.258;12.690;2024-03-29T13:54:37;20.50;99.90
19342;DHT22;9807;48.258;12.690;2024-03-29T13:57:03;20.70;99.90
19342;DHT22;9807;48.258;12.690;2024-03-29T13:59:32;20.90;99.90
19342;DHT22;9807;48.258;12.690;2024-03-29T14:01:58;20.90;99.90
19342;DHT22;9807;48.258;12.690;2024-03-29T14:04:24;21.10;99.90
19342;DHT22;9807;48.258;12.690;2024-03-29T14:06:50;21.10;99.90
19342;DHT22;9807;48.258;12.690;2024-03-29T14:09:16;20.90;99.90
19342;DHT22;9807;48.258;12.690;2024-03-29T14:11:43;20.90;99.90
19342;DHT22;9807;48.258;12.690;2024-03-29T14:14:10;21.10;99.90
19342;DHT22;9807;48.258;12.690;2024-03-29T14:16:38;21.50;99.90
19342;DHT22;9807;48.258;12.690;2024-03-29T14:19:03;21.80;99.90
19342;DHT22;9807;48.258;12.690;2024-03-29T14:21:30;21.80;99.90
19342;DHT22;9807;48.258;12.690;2024-03-29T14:23:57;21.90;99.90
19342;DHT22;9807;48.258;12.690;2024-03-29T14:26:23;22.10;99.90
19342;DHT22;9807;48.258;12.690;2024-03-29T14:28:48;22.10;99.90
19342;DHT22;9807;48.258;12.690;2024-03-29T14:31:15;22.30;99.90
19342;DHT22;9807;48.258;12.690;2024-03-29T14:33:41;22.40;99.90
19342;DHT22;9807;48.258;12.690;2024-03-29T14:36:06;22.50;99.90
19342;DHT22;9807;48.258;12.690;2024-03-29T14:38:32;22.60;99.90
19342;DHT22;9807;48.258;12.690;2024-03-29T14:40:58;22.80;99.90
19342;DHT22;9807;48.258;12.690;2024-03-29T14:43:23;22.90;99.90
19342;DHT22;9807;48.258;12.690;2024-03-29T14:45:49;23.00;99.90
19342;DHT22;9807;48.258;12.690;2024-03-29T14:48:16;23.10;99.90
19342;DHT22;9807;48.258;12.690;2024-03-29T14:50:43;23.20;99.90
19342;DHT22;9807;48.258;12.690;2024-03-29T14:53:10;23.10;99.90
19342;DHT22;9807;48.258;12.690;2024-03-29T14:55:36;23.10;99.90
19342;DHT22;9807;48.258;12.690;2024-03-29T14:58:05;22.80;99.90
19342;DHT22;9807;48.258;12.690;2024-03-29T15:00:32;22.60;99.90
19342;DHT22;9807;48.258;12.690;2024-03-29T15:02:58;22.60;99.90
19342;DHT22;9807;48.258;12.690;2024-03-29T15:05:24;22.70;99.90
19342;DHT22;9807;48.258;12.690;2024-03-29T15:07:52;22.60;99.90
19342;DHT22;9807;48.258;12.690;2024-03-29T15:10:17;22.60;99.90
19342;DHT22;9807;48.258;12.690;2024-03-29T15:12:45;22.70;99.90
19342;DHT22;9807;48.258;12.690;2024-03-29T15:15:14;22.90;99.90
19342;DHT22;9807;48.258;12.690;2024-03-29T15:17:40;23.10;99.90
19342;DHT22;9807;48.258;12.690;2024-03-29T15:20:07;23.30;99.90
19342;DHT22;9807;48.258;12.690;2024-03-29T15:22:36;23.40;99.90
19342;DHT22;9807;48.258;12.690;2024-03-29T15:25:04;23.30;99.90
19342;DHT22;9807;48.258;12.690;2024-03-29T15:27:29;23.50;99.90
19342;DHT22;9807;48.258;12.690;2024-03-29T15:30:15;23.60;99.90
19342;DHT22;9807;48.258;12.690;2024-03-29T15:32:41;23.70;99.90
19342;DHT22;9807;48.258;12.690;2024-03-29T15:35:07;23.70;99.90
19342;DHT22;9807;48.258;12.690;2024-03-29T15:37:37;23.60;99.90
19342;DHT22;9807;48.258;12.690;2024-03-29T15:40:03;23.50;99.90
19342;DHT22;9807;48.258;12.690;2024-03-29T15:42:30;23.50;99.90
19342;DHT22;9807;48.258;12.690;2024-03-29T15:44:56;23.30;99.90
19342;DHT22;9807;48.258;12.690;2024-03-29T15:47:22;23.10;99.90